createdAt,value
2018-02-04T00:00:40.960Z,4.24
2018-02-04T00:01:40.947Z,4.30
2018-02-04T00:02:40.946Z,4.28
2018-02-04T00:03:40.943Z,4.32
2018-02-04T00:04:40.927Z,4.20
2018-02-04T00:05:40.933Z,4.34
2018-02-04T00:06:40.918Z,4.24
2018-02-04T00:07:41.802Z,4.28
2018-02-04T00:08:40.903Z,4.23
2018-02-04T00:09:41.873Z,4.26
2018-02-04T00:10:40.893Z,4.24
2018-02-04T00:11:40.873Z,4.26
2018-02-04T00:12:40.884Z,4.30
2018-02-04T00:13:40.859Z,4.23
2018-02-04T00:14:40.870Z,4.26
2018-02-04T00:15:40.852Z,4.23
2018-02-04T00:16:40.916Z,4.24
2018-02-04T00:17:40.832Z,4.14
2018-02-04T00:18:40.822Z,4.20
2018-02-04T00:19:40.911Z,4.22
2018-02-04T00:20:40.826Z,4.13
2018-02-04T00:21:40.851Z,4.12
2018-02-04T00:22:40.792Z,4.19
2018-02-04T00:23:40.860Z,4.19
2018-02-04T00:24:40.779Z,4.19
2018-02-04T00:25:40.793Z,4.24
2018-02-04T00:26:40.786Z,4.24
2018-02-04T00:27:40.755Z,4.22
2018-02-04T00:28:40.816Z,4.19
2018-02-04T00:29:40.817Z,4.22
2018-02-04T00:30:40.732Z,4.20
2018-02-04T00:31:40.950Z,4.30
2018-02-04T00:32:40.737Z,4.23
2018-02-04T00:33:40.765Z,4.23
2018-02-04T00:34:40.906Z,4.30
2018-02-04T00:35:40.696Z,4.32
2018-02-04T00:36:40.688Z,4.41
2018-02-04T00:37:41.378Z,4.30
2018-02-04T00:38:40.674Z,4.22
2018-02-04T00:39:40.670Z,4.32
2018-02-04T00:40:40.925Z,4.30
2018-02-04T00:41:40.674Z,4.37
2018-02-04T00:42:40.688Z,4.30
2018-02-04T00:43:40.649Z,4.23
2018-02-04T00:44:40.702Z,4.32
2018-02-04T00:45:40.623Z,4.30
2018-02-04T00:46:40.709Z,4.32
2018-02-04T00:47:40.728Z,4.22
2018-02-04T00:48:41.362Z,4.24
2018-02-04T00:49:41.337Z,4.28
2018-02-04T00:50:40.587Z,4.30
2018-02-04T00:51:41.367Z,4.30
2018-02-04T00:52:40.918Z,4.34
2018-02-04T00:53:40.578Z,4.31
2018-02-04T00:54:40.605Z,4.30
2018-02-04T00:55:40.550Z,4.26
2018-02-04T00:56:40.540Z,4.28
2018-02-04T00:57:40.533Z,4.34
2018-02-04T00:58:40.530Z,4.31
2018-02-04T00:59:40.518Z,4.22
2018-02-04T01:00:40.510Z,4.32
2018-02-04T01:01:40.503Z,4.20
2018-02-04T01:02:40.505Z,4.28
2018-02-04T01:03:40.490Z,4.26
2018-02-04T01:04:40.482Z,4.26
2018-02-04T01:05:40.473Z,4.26
2018-02-04T01:06:40.514Z,4.17
2018-02-04T01:07:40.460Z,4.28
2018-02-04T01:08:40.451Z,4.28
2018-02-04T01:09:40.468Z,4.23
2018-02-04T01:10:40.435Z,4.26
2018-02-04T01:11:40.430Z,4.17
2018-02-04T01:12:40.427Z,4.24
2018-02-04T01:13:40.419Z,4.16
2018-02-04T01:14:40.411Z,4.22
2018-02-04T01:15:40.398Z,4.22
2018-02-04T01:16:40.393Z,4.19
2018-02-04T01:17:40.390Z,4.17
2018-02-04T01:18:41.530Z,4.13
2018-02-04T01:19:40.373Z,4.14
2018-02-04T01:20:40.364Z,4.04
2018-02-04T01:21:40.354Z,4.02
2018-02-04T01:22:40.354Z,4.04
2018-02-04T01:23:40.782Z,4.01
2018-02-04T01:24:40.336Z,4.08
2018-02-04T01:25:40.325Z,4.08
2018-02-04T01:26:40.317Z,4.10
2018-02-04T01:27:40.309Z,4.13
2018-02-04T01:28:40.302Z,4.17
2018-02-04T01:29:40.328Z,4.16
2018-02-04T01:30:40.291Z,4.17
2018-02-04T01:31:40.292Z,4.16
2018-02-04T01:32:40.273Z,4.17
2018-02-04T01:33:40.266Z,4.16
2018-02-04T01:34:40.255Z,4.17
2018-02-04T01:35:40.250Z,4.23
2018-02-04T01:36:40.244Z,4.17
2018-02-04T01:37:40.274Z,4.26
2018-02-04T01:38:40.236Z,4.19
2018-02-04T01:39:40.224Z,4.22
2018-02-04T01:40:40.244Z,4.22
2018-02-04T01:41:40.203Z,4.16
2018-02-04T01:42:40.201Z,4.14
2018-02-04T01:43:40.191Z,4.20
2018-02-04T01:44:40.186Z,4.16
2018-02-04T01:45:40.280Z,4.23
2018-02-04T01:46:40.173Z,4.14
2018-02-04T01:47:40.165Z,4.12
2018-02-04T01:48:40.172Z,4.22
2018-02-04T01:49:40.170Z,4.26
2018-02-04T01:50:40.136Z,4.26
2018-02-04T01:51:40.133Z,4.17
2018-02-04T01:52:40.122Z,4.22
2018-02-04T01:53:40.113Z,4.24
2018-02-04T01:54:40.107Z,4.14
2018-02-04T01:55:40.101Z,4.26
2018-02-04T01:56:40.095Z,4.19
2018-02-04T01:57:40.092Z,4.30
2018-02-04T01:58:40.078Z,4.24
2018-02-04T01:59:40.086Z,4.24
2018-02-04T02:00:40.092Z,4.28
2018-02-04T02:01:40.055Z,4.19
2018-02-04T02:02:40.095Z,4.14
2018-02-04T02:03:40.045Z,4.30
2018-02-04T02:04:40.048Z,4.17
2018-02-04T02:05:40.049Z,4.20
2018-02-04T02:06:40.858Z,4.23
2018-02-04T02:07:40.091Z,4.22
2018-02-04T02:08:41.313Z,4.17
2018-02-04T02:09:43.317Z,4.19
2018-02-04T02:10:41.802Z,4.16
2018-02-04T02:11:40.061Z,4.12
2018-02-04T02:12:41.776Z,4.22
2018-02-04T02:13:42.802Z,4.19
2018-02-04T02:14:41.302Z,4.16
2018-02-04T02:15:48.803Z,4.02
2018-02-04T02:16:41.803Z,3.96
2018-02-04T02:17:43.807Z,3.98
2018-02-04T02:18:44.314Z,3.92
2018-02-04T02:19:41.301Z,3.94
2018-02-04T02:20:41.798Z,3.92
2018-02-04T02:21:42.310Z,3.87
2018-02-04T02:22:39.979Z,3.88
2018-02-04T02:23:41.820Z,3.87
2018-02-04T02:24:44.293Z,3.83
2018-02-04T02:25:41.304Z,3.86
2018-02-04T02:26:39.867Z,3.92
2018-02-04T02:27:39.864Z,3.94
2018-02-04T02:28:39.860Z,3.86
2018-02-04T02:29:39.844Z,3.88
2018-02-04T02:30:39.837Z,3.83
2018-02-04T02:31:39.836Z,3.94
2018-02-04T02:32:39.824Z,3.92
2018-02-04T02:33:39.813Z,3.94
2018-02-04T02:34:39.814Z,3.91
2018-02-04T02:35:39.800Z,3.87
2018-02-04T02:36:39.792Z,3.86
2018-02-04T02:37:41.312Z,3.92
2018-02-04T02:38:40.818Z,3.94
2018-02-04T02:39:41.800Z,3.95
2018-02-04T02:40:41.808Z,3.96
2018-02-04T02:41:41.312Z,3.96
2018-02-04T02:42:41.797Z,4.02
2018-02-04T02:43:41.319Z,4.06
2018-02-04T02:44:40.311Z,4.10
2018-02-04T02:45:40.809Z,4.23
2018-02-04T02:46:41.303Z,4.16
2018-02-04T02:47:40.803Z,4.30
2018-02-04T02:48:42.382Z,4.26
2018-02-04T02:49:40.815Z,4.26
2018-02-04T02:50:40.308Z,4.30
2018-02-04T02:51:40.803Z,4.20
2018-02-04T02:52:40.805Z,4.24
2018-02-04T02:53:41.307Z,4.28
2018-02-04T02:54:40.319Z,4.28
2018-02-04T02:55:41.809Z,4.24
2018-02-04T02:56:39.663Z,4.19
2018-02-04T02:57:39.639Z,4.22
2018-02-04T02:58:39.731Z,4.26
2018-02-04T02:59:40.294Z,4.24
2018-02-04T03:00:39.694Z,4.26
2018-02-04T03:01:39.627Z,4.30
2018-02-04T03:02:39.764Z,4.23
2018-02-04T03:03:39.700Z,4.23
2018-02-04T03:04:40.313Z,4.28
2018-02-04T03:05:40.792Z,4.26
2018-02-04T03:06:39.614Z,4.34
2018-02-04T03:07:40.313Z,4.26
2018-02-04T03:08:40.279Z,4.28
2018-02-04T03:09:39.685Z,4.19
2018-02-04T03:10:40.359Z,4.20
2018-02-04T03:11:39.630Z,4.17
2018-02-04T03:12:39.712Z,4.06
2018-02-04T03:13:39.757Z,3.92
2018-02-04T03:14:39.518Z,3.92
2018-02-04T03:15:39.586Z,3.91
2018-02-04T03:16:39.638Z,3.86
2018-02-04T03:17:40.285Z,3.92
2018-02-04T03:18:40.372Z,3.92
2018-02-04T03:19:39.702Z,3.96
2018-02-04T03:20:39.566Z,4.05
2018-02-04T03:21:39.705Z,4.04
2018-02-04T03:22:39.591Z,4.01
2018-02-04T03:23:39.529Z,3.99
2018-02-04T03:24:39.436Z,4.06
2018-02-04T03:25:39.421Z,4.16
2018-02-04T03:26:39.419Z,4.16
2018-02-04T03:27:39.409Z,4.12
2018-02-04T03:28:39.399Z,4.13
2018-02-04T03:29:39.390Z,4.08
2018-02-04T03:30:39.384Z,4.10
2018-02-04T03:31:39.376Z,3.98
2018-02-04T03:32:39.368Z,4.02
2018-02-04T03:33:39.369Z,4.05
2018-02-04T03:34:39.352Z,4.01
2018-02-04T03:35:39.349Z,3.99
2018-02-04T03:36:39.337Z,4.01
2018-02-04T03:37:39.331Z,4.13
2018-02-04T03:38:39.324Z,4.02
2018-02-04T03:39:39.314Z,4.13
2018-02-04T03:40:39.306Z,4.19
2018-02-04T03:41:39.300Z,4.24
2018-02-04T03:42:39.292Z,4.16
2018-02-04T03:43:39.285Z,4.20
2018-02-04T03:44:39.277Z,4.17
2018-02-04T03:45:39.268Z,4.16
2018-02-04T03:46:39.261Z,4.26
2018-02-04T03:47:39.254Z,4.17
2018-02-04T03:48:39.248Z,4.24
2018-02-04T03:49:39.239Z,4.32
2018-02-04T03:50:39.234Z,4.35
2018-02-04T03:51:39.225Z,4.28
2018-02-04T03:52:39.218Z,4.23
2018-02-04T03:53:39.209Z,4.38
2018-02-04T03:54:39.202Z,4.28
2018-02-04T03:55:39.195Z,4.35
2018-02-04T03:56:39.190Z,4.28
2018-02-04T03:57:39.184Z,4.32
2018-02-04T03:58:39.173Z,4.40
2018-02-04T03:59:39.165Z,4.32
2018-02-04T04:00:39.163Z,4.23
2018-02-04T04:01:39.149Z,4.26
2018-02-04T04:02:39.144Z,4.23
2018-02-04T04:03:39.137Z,4.23
2018-02-04T04:04:39.130Z,4.28
2018-02-04T04:05:39.120Z,4.34
2018-02-04T04:06:39.114Z,4.30
2018-02-04T04:07:39.105Z,4.17
2018-02-04T04:08:39.101Z,4.13
2018-02-04T04:09:39.092Z,4.17
2018-02-04T04:10:39.083Z,4.08
2018-02-04T04:11:39.079Z,4.06
2018-02-04T04:12:39.068Z,4.06
2018-02-04T04:13:39.061Z,4.01
2018-02-04T04:14:39.053Z,3.99
2018-02-04T04:15:39.047Z,3.98
2018-02-04T04:16:39.042Z,4.02
2018-02-04T04:17:39.031Z,4.02
2018-02-04T04:18:39.023Z,3.91
2018-02-04T04:19:39.016Z,3.87
2018-02-04T04:20:39.011Z,3.80
2018-02-04T04:21:39.006Z,3.80
2018-02-04T04:22:38.996Z,3.92
2018-02-04T04:23:38.995Z,3.94
2018-02-04T04:24:38.979Z,3.87
2018-02-04T04:25:38.977Z,3.94
2018-02-04T04:26:38.963Z,3.99
2018-02-04T04:27:38.972Z,3.98
2018-02-04T04:28:38.949Z,3.99
2018-02-04T04:29:38.941Z,4.02
2018-02-04T04:30:38.934Z,4.01
2018-02-04T04:31:38.937Z,4.05
2018-02-04T04:32:38.918Z,3.98
2018-02-04T04:33:38.910Z,3.84
2018-02-04T04:34:38.905Z,3.80
2018-02-04T04:35:38.893Z,3.77
2018-02-04T04:36:38.888Z,3.74
2018-02-04T04:37:38.877Z,3.86
2018-02-04T04:38:38.873Z,3.81
2018-02-04T04:39:38.862Z,3.88
2018-02-04T04:40:38.856Z,3.80
2018-02-04T04:41:38.847Z,3.83
2018-02-04T04:42:38.858Z,3.80
2018-02-04T04:43:38.864Z,3.73
2018-02-04T04:44:39.313Z,3.73
2018-02-04T04:45:38.990Z,3.66
2018-02-04T04:46:39.808Z,3.59
2018-02-04T04:47:40.299Z,3.37
2018-02-04T04:48:39.824Z,3.34
2018-02-04T04:49:40.076Z,3.31
2018-02-04T04:50:38.805Z,3.23
2018-02-04T04:51:38.818Z,3.16
2018-02-04T04:52:38.764Z,3.21
2018-02-04T04:53:38.815Z,3.14
2018-02-04T04:54:38.811Z,3.18
2018-02-04T04:55:38.776Z,3.08
2018-02-04T04:56:38.744Z,3.19
2018-02-04T04:57:38.732Z,3.05
2018-02-04T04:58:38.741Z,3.07
2018-02-04T04:59:38.712Z,3.18
2018-02-04T05:00:38.730Z,3.14
2018-02-04T05:01:38.731Z,3.07
2018-02-04T05:02:38.696Z,3.01
2018-02-04T05:03:38.723Z,2.98
2018-02-04T05:04:38.731Z,2.93
2018-02-04T05:05:38.656Z,2.98
2018-02-04T05:06:38.724Z,2.85
2018-02-04T05:07:38.637Z,2.95
2018-02-04T05:08:38.627Z,2.93
2018-02-04T05:09:38.616Z,2.90
2018-02-04T05:10:38.618Z,2.93
2018-02-04T05:11:38.601Z,2.87
2018-02-04T05:12:38.606Z,2.89
2018-02-04T05:13:38.585Z,2.95
2018-02-04T05:14:38.571Z,3.00
2018-02-04T05:15:38.563Z,3.00
2018-02-04T05:16:38.551Z,2.93
2018-02-04T05:17:38.552Z,2.97
2018-02-04T05:18:38.537Z,2.92
2018-02-04T05:19:38.532Z,2.90
2018-02-04T05:20:38.520Z,2.92
2018-02-04T05:21:38.508Z,2.98
2018-02-04T05:22:38.514Z,3.01
2018-02-04T05:23:38.520Z,2.98
2018-02-04T05:24:38.486Z,2.97
2018-02-04T05:25:38.484Z,2.93
2018-02-04T05:26:38.463Z,2.98
2018-02-04T05:27:38.457Z,3.01
2018-02-04T05:28:38.452Z,3.04
2018-02-04T05:29:38.436Z,3.05
2018-02-04T05:30:38.433Z,2.98
2018-02-04T05:31:38.419Z,3.01
2018-02-04T05:32:38.410Z,3.04
2018-02-04T05:33:38.403Z,2.97
2018-02-04T05:34:38.400Z,3.11
2018-02-04T05:35:38.383Z,3.11
2018-02-04T05:36:38.376Z,3.10
2018-02-04T05:37:38.364Z,3.00
2018-02-04T05:38:38.357Z,2.98
2018-02-04T05:39:38.348Z,3.01
2018-02-04T05:40:38.341Z,2.95
2018-02-04T05:41:38.330Z,2.89
2018-02-04T05:42:38.324Z,3.01
2018-02-04T05:43:38.313Z,2.95
2018-02-04T05:44:38.307Z,2.90
2018-02-04T05:45:38.304Z,2.83
2018-02-04T05:46:38.288Z,2.86
2018-02-04T05:47:38.280Z,2.82
2018-02-04T05:48:38.273Z,2.75
2018-02-04T05:49:38.260Z,2.75
2018-02-04T05:50:38.250Z,2.77
2018-02-04T05:51:38.241Z,2.72
2018-02-04T05:52:38.233Z,2.80
2018-02-04T05:53:38.224Z,2.77
2018-02-04T05:54:38.214Z,2.77
2018-02-04T05:55:38.205Z,2.69
2018-02-04T05:56:38.197Z,2.75
2018-02-04T05:57:38.187Z,2.68
2018-02-04T05:58:38.178Z,2.51
2018-02-04T05:59:38.173Z,2.53
2018-02-04T06:00:38.167Z,2.56
2018-02-04T06:01:38.150Z,2.56
2018-02-04T06:02:38.142Z,2.50
2018-02-04T06:03:38.133Z,2.47
2018-02-04T06:04:38.126Z,2.43
2018-02-04T06:05:38.115Z,2.29
2018-02-04T06:06:38.105Z,2.24
2018-02-04T06:07:38.095Z,2.13
2018-02-04T06:08:38.087Z,2.06
2018-02-04T06:09:38.077Z,2.08
2018-02-04T06:10:38.066Z,2.02
2018-02-04T06:11:38.063Z,1.92
2018-02-04T06:12:38.049Z,1.95
2018-02-04T06:13:38.038Z,1.99
2018-02-04T06:14:38.029Z,2.06
2018-02-04T06:15:38.020Z,2.02
2018-02-04T06:16:38.012Z,2.06
2018-02-04T06:17:38.002Z,2.14
2018-02-04T06:18:37.992Z,2.07
2018-02-04T06:19:37.993Z,2.06
2018-02-04T06:20:37.971Z,2.17
2018-02-04T06:21:37.961Z,2.14
2018-02-04T06:22:37.958Z,2.14
2018-02-04T06:23:37.945Z,2.04
2018-02-04T06:24:37.934Z,1.99
2018-02-04T06:25:37.923Z,1.99
2018-02-04T06:26:37.918Z,1.95
2018-02-04T06:27:37.903Z,1.91
2018-02-04T06:28:37.895Z,1.95
2018-02-04T06:29:37.889Z,1.92
2018-02-04T06:30:37.874Z,1.87
2018-02-04T06:31:37.865Z,1.89
2018-02-04T06:32:37.855Z,1.92
2018-02-04T06:33:37.844Z,1.95
2018-02-04T06:34:37.835Z,1.97
2018-02-04T06:35:37.828Z,2.02
2018-02-04T06:36:37.816Z,2.00
2018-02-04T06:37:37.805Z,2.06
2018-02-04T06:38:37.797Z,1.99
2018-02-04T06:39:37.786Z,2.00
2018-02-04T06:40:37.779Z,2.04
2018-02-04T06:41:37.769Z,2.10
2018-02-04T06:42:37.757Z,2.13
2018-02-04T06:43:37.755Z,2.13
2018-02-04T06:44:37.739Z,2.00
2018-02-04T06:45:37.727Z,2.06
2018-02-04T06:46:37.718Z,2.07
2018-02-04T06:47:37.711Z,2.06
2018-02-04T06:48:37.700Z,2.02
2018-02-04T06:49:37.689Z,2.04
2018-02-04T06:50:37.678Z,1.87
2018-02-04T06:51:37.670Z,1.81
2018-02-04T06:52:37.660Z,1.63
2018-02-04T06:53:37.687Z,1.71
2018-02-04T06:54:37.641Z,1.67
2018-02-04T06:55:37.632Z,1.66
2018-02-04T06:56:37.622Z,1.73
2018-02-04T06:57:37.610Z,1.59
2018-02-04T06:58:37.601Z,1.67
2018-02-04T06:59:37.591Z,1.59
2018-02-04T07:00:37.637Z,1.56
2018-02-04T07:01:37.571Z,1.58
2018-02-04T07:02:37.561Z,1.63
2018-02-04T07:03:37.550Z,1.70
2018-02-04T07:04:37.542Z,1.63
2018-02-04T07:05:37.531Z,1.68
2018-02-04T07:06:37.521Z,1.68
2018-02-04T07:07:37.511Z,1.56
2018-02-04T07:08:37.501Z,1.66
2018-02-04T07:09:37.524Z,1.67
2018-02-04T07:10:37.483Z,1.67
2018-02-04T07:11:37.471Z,1.67
2018-02-04T07:12:37.461Z,1.71
2018-02-04T07:13:37.450Z,1.74
2018-02-04T07:14:37.444Z,1.66
2018-02-04T07:15:37.430Z,1.60
2018-02-04T07:16:37.421Z,1.59
2018-02-04T07:17:37.411Z,1.60
2018-02-04T07:18:37.402Z,1.66
2018-02-04T07:19:37.401Z,1.62
2018-02-04T07:20:37.383Z,1.62
2018-02-04T07:21:37.373Z,1.62
2018-02-04T07:22:37.369Z,1.53
2018-02-04T07:23:37.355Z,1.59
2018-02-04T07:24:37.345Z,1.41
2018-02-04T07:25:37.333Z,1.35
2018-02-04T07:26:37.324Z,1.35
2018-02-04T07:27:37.311Z,1.30
2018-02-04T07:28:37.306Z,1.28
2018-02-04T07:29:37.291Z,1.41
2018-02-04T07:30:37.280Z,1.26
2018-02-04T07:31:37.314Z,1.34
2018-02-04T07:32:37.259Z,1.31
2018-02-04T07:33:37.249Z,1.31
2018-02-04T07:34:37.238Z,1.44
2018-02-04T07:35:37.232Z,1.44
2018-02-04T07:36:37.221Z,1.49
2018-02-04T07:37:37.208Z,1.41
2018-02-04T07:38:37.198Z,1.42
2018-02-04T07:39:37.189Z,1.60
2018-02-04T07:40:37.180Z,1.59
2018-02-04T07:41:37.168Z,1.60
2018-02-04T07:42:37.165Z,1.55
2018-02-04T07:43:37.149Z,1.56
2018-02-04T07:44:37.137Z,1.55
2018-02-04T07:45:37.129Z,1.62
2018-02-04T07:46:37.117Z,1.49
2018-02-04T07:47:37.107Z,1.55
2018-02-04T07:48:37.098Z,1.53
2018-02-04T07:49:37.088Z,1.60
2018-02-04T07:50:37.077Z,1.59
2018-02-04T07:51:37.070Z,1.66
2018-02-04T07:52:37.057Z,1.58
2018-02-04T07:53:37.048Z,1.62
2018-02-04T07:54:37.042Z,1.59
2018-02-04T07:55:37.027Z,1.53
2018-02-04T07:56:37.018Z,1.59
2018-02-04T07:57:37.007Z,1.56
2018-02-04T07:58:36.999Z,1.49
2018-02-04T07:59:36.990Z,1.45
2018-02-04T08:00:36.978Z,1.48
2018-02-04T08:01:36.977Z,1.40
2018-02-04T08:02:36.957Z,1.42
2018-02-04T08:03:36.948Z,1.44
2018-02-04T08:04:36.936Z,1.42
2018-02-04T08:05:36.925Z,1.52
2018-02-04T08:06:36.915Z,1.49
2018-02-04T08:07:36.906Z,1.44
2018-02-04T08:08:36.898Z,1.49
2018-02-04T08:09:36.885Z,1.38
2018-02-04T08:10:36.877Z,1.42
2018-02-04T08:11:36.864Z,1.37
2018-02-04T08:12:36.856Z,1.32
2018-02-04T08:13:36.844Z,1.42
2018-02-04T08:14:36.834Z,1.45
2018-02-04T08:15:36.825Z,1.50
2018-02-04T08:16:36.813Z,1.42
2018-02-04T08:17:36.809Z,1.45
2018-02-04T08:18:36.801Z,1.49
2018-02-04T08:19:36.783Z,1.31
2018-02-04T08:20:36.775Z,1.28
2018-02-04T08:21:36.763Z,1.32
2018-02-04T08:22:36.753Z,1.37
2018-02-04T08:23:36.743Z,1.32
2018-02-04T08:24:36.746Z,1.41
2018-02-04T08:25:36.722Z,1.41
2018-02-04T08:26:36.714Z,1.35
2018-02-04T08:27:36.704Z,1.38
2018-02-04T08:28:36.699Z,1.34
2018-02-04T08:29:36.693Z,1.28
2018-02-04T08:30:36.671Z,1.30
2018-02-04T08:31:36.661Z,1.30
2018-02-04T08:32:36.653Z,1.20
2018-02-04T08:33:36.638Z,1.22
2018-02-04T08:34:36.628Z,1.23
2018-02-04T08:35:36.679Z,1.26
2018-02-04T08:36:36.608Z,1.14
2018-02-04T08:37:36.601Z,1.26
2018-02-04T08:38:36.596Z,1.28
2018-02-04T08:39:36.576Z,1.26
2018-02-04T08:40:36.565Z,1.31
2018-02-04T08:41:36.554Z,1.23
2018-02-04T08:42:36.545Z,1.28
2018-02-04T08:43:36.534Z,1.24
2018-02-04T08:44:36.544Z,1.31
2018-02-04T08:45:36.513Z,1.20
2018-02-04T08:46:36.505Z,1.14
2018-02-04T08:47:36.492Z,1.19
2018-02-04T08:48:36.481Z,1.24
2018-02-04T08:49:36.472Z,1.14
2018-02-04T08:50:36.460Z,1.24
2018-02-04T08:51:36.457Z,1.20
2018-02-04T08:52:36.439Z,1.19
2018-02-04T08:53:36.428Z,1.16
2018-02-04T08:54:36.422Z,1.17
2018-02-04T08:55:36.416Z,1.23
2018-02-04T08:56:36.396Z,1.24
2018-02-04T08:57:36.397Z,1.32
2018-02-04T08:58:36.377Z,1.34
2018-02-04T08:59:36.365Z,1.32
2018-02-04T09:00:36.359Z,1.40
2018-02-04T09:01:36.344Z,1.34
2018-02-04T09:02:36.334Z,1.37
2018-02-04T09:03:36.325Z,1.34
2018-02-04T09:04:36.313Z,1.31
2018-02-04T09:05:36.303Z,1.31
2018-02-04T09:06:36.294Z,1.31
2018-02-04T09:07:36.282Z,1.34
2018-02-04T09:08:36.272Z,1.32
2018-02-04T09:09:36.260Z,1.44
2018-02-04T09:10:36.252Z,1.41
2018-02-04T09:11:36.240Z,1.40
2018-02-04T09:12:36.236Z,1.26
2018-02-04T09:13:36.221Z,1.34
2018-02-04T09:14:36.214Z,1.41
2018-02-04T09:15:36.199Z,1.40
2018-02-04T09:16:36.191Z,1.35
2018-02-04T09:17:36.179Z,1.32
2018-02-04T09:18:36.168Z,1.37
2018-02-04T09:19:36.158Z,1.42
2018-02-04T09:20:36.148Z,1.28
2018-02-04T09:21:36.136Z,1.31
2018-02-04T09:22:36.126Z,1.31
2018-02-04T09:23:36.115Z,1.38
2018-02-04T09:24:36.105Z,1.35
2018-02-04T09:25:36.098Z,1.32
2018-02-04T09:26:36.088Z,1.28
2018-02-04T09:27:36.074Z,1.35
2018-02-04T09:28:36.066Z,1.37
2018-02-04T09:29:36.054Z,1.35
2018-02-04T09:30:36.045Z,1.42
2018-02-04T09:31:36.033Z,1.31
2018-02-04T09:32:36.022Z,1.30
2018-02-04T09:33:36.011Z,1.40
2018-02-04T09:34:36.009Z,1.37
2018-02-04T09:35:35.995Z,1.32
2018-02-04T09:36:35.982Z,1.38
2018-02-04T09:37:35.970Z,1.31
2018-02-04T09:38:35.960Z,1.31
2018-02-04T09:39:35.949Z,1.40
2018-02-04T09:40:35.939Z,1.45
2018-02-04T09:41:35.928Z,1.45
2018-02-04T09:42:35.919Z,1.45
2018-02-04T09:43:35.907Z,1.50
2018-02-04T09:44:35.896Z,1.45
2018-02-04T09:45:35.893Z,1.38
2018-02-04T09:46:35.879Z,1.49
2018-02-04T09:47:35.865Z,1.38
2018-02-04T09:48:35.859Z,1.35
2018-02-04T09:49:35.845Z,1.34
2018-02-04T09:50:35.836Z,1.41
2018-02-04T09:51:35.826Z,1.35
2018-02-04T09:52:35.836Z,1.40
2018-02-04T09:53:35.806Z,1.37
2018-02-04T09:54:35.794Z,1.42
2018-02-04T09:55:35.784Z,1.30
2018-02-04T09:56:35.778Z,1.35
2018-02-04T09:57:35.767Z,1.32
2018-02-04T09:58:35.819Z,1.31
2018-02-04T09:59:35.749Z,1.32
2018-02-04T10:00:35.732Z,1.35
2018-02-04T10:01:35.725Z,1.35
2018-02-04T10:02:35.711Z,1.41
2018-02-04T10:03:35.708Z,1.35
2018-02-04T10:04:35.690Z,1.37
2018-02-04T10:05:35.694Z,1.48
2018-02-04T10:06:35.670Z,1.50
2018-02-04T10:07:35.660Z,1.45
2018-02-04T10:08:35.652Z,1.52
2018-02-04T10:09:35.642Z,1.53
2018-02-04T10:10:35.645Z,1.49
2018-02-04T10:11:35.618Z,1.58
2018-02-04T10:12:35.608Z,1.52
2018-02-04T10:13:35.599Z,1.50
2018-02-04T10:14:35.589Z,1.37
2018-02-04T10:15:35.579Z,1.35
2018-02-04T10:16:35.577Z,1.32
2018-02-04T10:17:35.556Z,1.31
2018-02-04T10:18:35.548Z,1.32
2018-02-04T10:19:35.537Z,1.28
2018-02-04T10:20:35.547Z,1.31
2018-02-04T10:21:35.515Z,1.26
2018-02-04T10:22:35.514Z,1.22
2018-02-04T10:23:35.495Z,1.12
2018-02-04T10:24:35.485Z,1.08
2018-02-04T10:25:35.507Z,1.10
2018-02-04T10:26:35.468Z,1.12
2018-02-04T10:27:36.273Z,1.14
2018-02-04T10:28:35.443Z,1.10
2018-02-04T10:29:35.431Z,1.12
2018-02-04T10:30:35.430Z,1.13
2018-02-04T10:31:35.415Z,1.12
2018-02-04T10:32:35.412Z,1.06
2018-02-04T10:33:35.396Z,1.13
2018-02-04T10:34:35.380Z,1.16
2018-02-04T10:35:35.376Z,1.22
2018-02-04T10:36:35.360Z,1.22
2018-02-04T10:37:35.347Z,1.16
2018-02-04T10:38:35.355Z,1.16
2018-02-04T10:39:35.327Z,1.12
2018-02-04T10:40:35.317Z,1.10
2018-02-04T10:41:35.327Z,1.10
2018-02-04T10:42:35.296Z,1.10
2018-02-04T10:43:35.284Z,1.08
2018-02-04T10:44:35.274Z,1.14
2018-02-04T10:45:35.264Z,1.20
2018-02-04T10:46:35.254Z,1.16
2018-02-04T10:47:35.255Z,1.14
2018-02-04T10:48:35.407Z,1.14
2018-02-04T10:49:35.226Z,1.23
2018-02-04T10:50:35.216Z,1.26
2018-02-04T10:51:35.200Z,1.26
2018-02-04T10:52:35.189Z,1.32
2018-02-04T10:53:35.186Z,1.34
2018-02-04T10:54:35.170Z,1.34
2018-02-04T10:55:35.161Z,1.30
2018-02-04T10:56:35.149Z,1.40
2018-02-04T10:57:35.139Z,1.31
2018-02-04T10:58:35.128Z,1.30
2018-02-04T10:59:35.116Z,1.37
2018-02-04T11:00:35.108Z,1.32
2018-02-04T11:01:35.096Z,1.32
2018-02-04T11:02:35.086Z,1.30
2018-02-04T11:03:35.080Z,1.17
2018-02-04T11:04:35.069Z,1.05
2018-02-04T11:05:35.054Z,1.08
2018-02-04T11:06:35.053Z,0.99
2018-02-04T11:07:35.046Z,0.95
2018-02-04T11:08:35.034Z,0.92
2018-02-04T11:09:35.017Z,0.94
2018-02-04T11:10:35.004Z,0.83
2018-02-04T11:11:35.036Z,0.94
2018-02-04T11:12:34.993Z,0.94
2018-02-04T11:13:34.976Z,0.91
2018-02-04T11:14:34.964Z,0.87
2018-02-04T11:15:34.957Z,0.81
2018-02-04T11:16:34.951Z,0.80
2018-02-04T11:17:34.926Z,0.88
2018-02-04T11:18:34.941Z,0.83
2018-02-04T11:19:34.905Z,0.88
2018-02-04T11:20:34.894Z,0.78
2018-02-04T11:21:34.883Z,0.78
2018-02-04T11:22:34.922Z,0.87
2018-02-04T11:23:34.863Z,0.87
2018-02-04T11:24:34.855Z,0.91
2018-02-04T11:25:34.846Z,0.84
2018-02-04T11:26:34.832Z,0.91
2018-02-04T11:27:34.820Z,0.91
2018-02-04T11:28:34.810Z,0.92
2018-02-04T11:29:34.802Z,1.05
2018-02-04T11:30:34.790Z,1.04
2018-02-04T11:31:34.786Z,1.05
2018-02-04T11:32:34.771Z,1.04
2018-02-04T11:33:34.753Z,1.06
2018-02-04T11:34:34.744Z,1.19
2018-02-04T11:35:34.735Z,1.16
2018-02-04T11:36:34.723Z,1.22
2018-02-04T11:37:34.713Z,1.22
2018-02-04T11:38:34.701Z,1.22
2018-02-04T11:39:34.691Z,1.10
2018-02-04T11:40:34.685Z,1.23
2018-02-04T11:41:34.669Z,1.13
2018-02-04T11:42:34.663Z,1.10
2018-02-04T11:43:34.649Z,1.04
2018-02-04T11:44:34.724Z,1.04
2018-02-04T11:45:34.628Z,1.10
2018-02-04T11:46:34.676Z,1.05
2018-02-04T11:47:34.686Z,1.08
2018-02-04T11:48:34.598Z,1.12
2018-02-04T11:49:34.600Z,1.13
2018-02-04T11:50:34.580Z,1.01
2018-02-04T11:51:34.566Z,1.06
2018-02-04T11:52:34.555Z,1.05
2018-02-04T11:53:34.545Z,1.02
2018-02-04T11:54:34.533Z,1.01
2018-02-04T11:55:34.522Z,1.12
2018-02-04T11:56:34.511Z,1.08
2018-02-04T11:57:34.502Z,1.19
2018-02-04T11:58:34.491Z,1.16
2018-02-04T11:59:34.480Z,1.23
2018-02-04T12:00:34.470Z,1.14
2018-02-04T12:01:34.467Z,1.23
2018-02-04T12:02:34.450Z,1.26
2018-02-04T12:03:34.447Z,1.30
2018-02-04T12:04:34.428Z,1.28
2018-02-04T12:05:34.424Z,1.30
2018-02-04T12:06:34.412Z,1.28
2018-02-04T12:07:34.396Z,1.28
2018-02-04T12:08:34.392Z,1.34
2018-02-04T12:09:34.420Z,1.30
2018-02-04T12:10:34.366Z,1.32
2018-02-04T12:11:34.362Z,1.34
2018-02-04T12:12:34.347Z,1.32
2018-02-04T12:13:34.338Z,1.34
2018-02-04T12:14:34.323Z,1.32
2018-02-04T12:15:34.373Z,1.26
2018-02-04T12:16:34.303Z,1.32
2018-02-04T12:17:34.293Z,1.40
2018-02-04T12:18:34.281Z,1.35
2018-02-04T12:19:34.274Z,1.32
2018-02-04T12:20:34.264Z,1.41
2018-02-04T12:21:34.252Z,1.44
2018-02-04T12:22:34.243Z,1.40
2018-02-04T12:23:34.234Z,1.44
2018-02-04T12:24:34.220Z,1.44
2018-02-04T12:25:34.211Z,1.44
2018-02-04T12:26:34.206Z,1.38
2018-02-04T12:27:34.189Z,1.44
2018-02-04T12:28:34.180Z,1.38
2018-02-04T12:29:34.173Z,1.44
2018-02-04T12:30:34.157Z,1.44
2018-02-04T12:31:34.158Z,1.55
2018-02-04T12:32:34.145Z,1.60
2018-02-04T12:33:34.141Z,1.60
2018-02-04T12:34:34.128Z,1.55
2018-02-04T12:35:34.115Z,1.55
2018-02-04T12:36:34.100Z,1.42
2018-02-04T12:37:34.089Z,1.44
2018-02-04T12:38:34.080Z,1.37
2018-02-04T12:39:34.069Z,1.31
2018-02-04T12:40:34.058Z,1.41
2018-02-04T12:41:34.048Z,1.35
2018-02-04T12:42:34.038Z,1.44
2018-02-04T12:43:34.026Z,1.45
2018-02-04T12:44:34.018Z,1.56
2018-02-04T12:45:34.006Z,1.62
2018-02-04T12:46:34.002Z,1.71
2018-02-04T12:47:33.986Z,1.67
2018-02-04T12:48:33.981Z,1.68
2018-02-04T12:49:33.969Z,1.78
2018-02-04T12:50:33.956Z,1.74
2018-02-04T12:51:33.963Z,1.74
2018-02-04T12:52:33.957Z,1.71
2018-02-04T12:53:33.927Z,1.76
2018-02-04T12:54:33.918Z,1.78
2018-02-04T12:55:33.909Z,1.76
2018-02-04T12:56:33.896Z,1.67
2018-02-04T12:57:33.891Z,1.58
2018-02-04T12:58:33.876Z,1.52
2018-02-04T12:59:33.867Z,1.45
2018-02-04T13:00:33.857Z,1.41
2018-02-04T13:01:33.846Z,1.45
2018-02-04T13:02:33.845Z,1.42
2018-02-04T13:03:33.829Z,1.34
2018-02-04T13:04:33.821Z,1.40
2018-02-04T13:05:33.817Z,1.41
2018-02-04T13:06:33.796Z,1.52
2018-02-04T13:07:33.787Z,1.40
2018-02-04T13:08:33.779Z,1.40
2018-02-04T13:09:33.769Z,1.45
2018-02-04T13:10:33.756Z,1.42
2018-02-04T13:11:33.748Z,1.40
2018-02-04T13:12:33.736Z,1.42
2018-02-04T13:13:33.725Z,1.41
2018-02-04T13:14:33.717Z,1.38
2018-02-04T13:15:33.706Z,1.56
2018-02-04T13:16:33.696Z,1.63
2018-02-04T13:17:33.685Z,1.73
2018-02-04T13:18:33.678Z,1.77